Time;durP1;ratioP1;P1;durP2;ratioP2;P2;SDS_P1;SDS_P2;PMS_P1;PMS_P2;Temp;Humidity;BMP_temperature;BMP_pressure;BME280_temperature;BME280_humidity;BME280_pressure;Samples;Min_cycle;Max_cycle;Signal;HPM_P1;HPM_P2
2022/02/23 00:01:30;;;;;;;1.80;0.90;;;9.10;99.90;;;;;;5025403;28;20780;-67
2022/02/23 00:03:56;;;;;;;0.90;0.80;;;9.30;99.90;;;;;;5026605;28;20437;-68
2022/02/23 00:09:43;;;;;;;1.17;0.80;;;9.40;99.90;;;;;;5024642;28;20237;-68
2022/02/23 00:12:09;;;;;;;1.10;0.80;;;9.30;99.90;;;;;;5025580;28;20463;-67
2022/02/23 00:14:34;;;;;;;2.70;0.93;;;9.30;99.90;;;;;;5025779;28;20180;-67
2022/02/23 00:17:00;;;;;;;1.10;0.77;;;9.30;99.90;;;;;;5026273;28;20216;-69
2022/02/23 00:19:26;;;;;;;2.67;0.90;;;9.40;99.90;;;;;;5025409;28;20686;-68
2022/02/23 00:21:52;;;;;;;1.90;0.90;;;9.40;99.90;;;;;;5026275;28;20558;-67
2022/02/23 00:24:17;;;;;;;2.30;1.00;;;9.40;99.90;;;;;;5043472;22;20518;-69
2022/02/23 00:26:43;;;;;;;1.60;1.20;;;9.40;99.90;;;;;;5007372;28;20547;-70
2022/02/23 00:29:08;;;;;;;1.53;1.00;;;9.30;99.90;;;;;;5005660;28;20183;-72
2022/02/23 00:31:34;;;;;;;5.13;0.70;;;9.30;99.90;;;;;;5007170;28;20395;-68
2022/02/23 00:33:59;;;;;;;1.50;0.90;;;9.30;99.90;;;;;;5019600;28;20934;-68
2022/02/23 00:36:25;;;;;;;1.67;0.90;;;9.30;99.90;;;;;;5024733;28;20183;-68
2022/02/23 00:38:51;;;;;;;1.47;0.80;;;9.20;99.90;;;;;;5025174;28;20185;-71
2022/02/23 00:41:16;;;;;;;1.40;0.90;;;9.30;99.90;;;;;;5024577;28;20176;-68
2022/02/23 00:43:42;;;;;;;1.37;0.87;;;9.30;99.90;;;;;;5023491;28;20207;-69
2022/02/23 00:46:08;;;;;;;2.37;1.00;;;9.20;99.90;;;;;;5024197;28;20175;-68
2022/02/23 00:48:33;;;;;;;1.43;0.90;;;9.20;99.90;;;;;;5025094;28;20197;-69
2022/02/23 00:50:59;;;;;;;1.27;0.77;;;9.30;99.90;;;;;;5024295;28;20172;-70
2022/02/23 00:53:24;;;;;;;1.13;0.80;;;9.20;99.90;;;;;;5024862;28;20218;-68
2022/02/23 00:55:50;;;;;;;1.93;1.07;;;9.20;99.90;;;;;;5024292;28;20175;-68
2022/02/23 00:58:16;;;;;;;1.70;1.00;;;9.20;99.90;;;;;;5024791;28;20218;-70
2022/02/23 01:00:41;;;;;;;2.17;1.07;;;9.20;99.90;;;;;;5022453;28;20731;-72
2022/02/23 01:19:58;;;;;;;2.67;1.20;;;9.50;99.90;;;;;;5023737;28;20871;-72
2022/02/23 01:22:24;;;;;;;2.23;0.87;;;9.40;99.90;;;;;;5023994;28;20426;-70
2022/02/23 01:24:49;;;;;;;1.27;0.93;;;9.30;99.90;;;;;;5023397;28;20928;-68
2022/02/23 01:27:15;;;;;;;1.93;0.90;;;9.40;99.90;;;;;;5022616;28;20285;-68
2022/02/23 01:29:41;;;;;;;2.30;0.90;;;9.30;99.90;;;;;;5023655;28;20189;-69
2022/02/23 01:32:07;;;;;;;2.43;1.40;;;9.30;99.90;;;;;;5023605;28;20195;-69
2022/02/23 01:34:33;;;;;;;1.77;0.90;;;9.40;99.90;;;;;;5023792;28;21065;-69
2022/02/23 01:36:59;;;;;;;2.40;1.23;;;9.20;99.90;;;;;;5022931;28;20541;-71
2022/02/23 01:39:25;;;;;;;2.50;1.10;;;9.20;99.90;;;;;;5024212;28;20418;-68
2022/02/23 01:41:50;;;;;;;2.00;0.90;;;9.20;99.90;;;;;;5022500;28;20916;-69
2022/02/23 01:44:16;;;;;;;1.57;0.80;;;9.30;99.90;;;;;;5024014;28;20202;-68
2022/02/23 01:46:41;;;;;;;2.17;1.20;;;9.40;99.90;;;;;;5022372;28;20243;-68
2022/02/23 01:49:07;;;;;;;1.20;1.00;;;9.20;99.90;;;;;;5024250;28;20190;-69
2022/02/23 01:51:33;;;;;;;2.70;1.10;;;9.30;99.90;;;;;;5022712;28;20193;-68
2022/02/23 01:53:58;;;;;;;4.13;1.37;;;9.20;99.90;;;;;;5023542;28;20254;-69
2022/02/23 01:56:24;;;;;;;2.97;0.90;;;8.50;99.90;;;;;;5023638;28;20309;-68
2022/02/23 01:58:49;;;;;;;8.50;1.80;;;7.90;99.90;;;;;;5022598;28;20180;-69
2022/02/23 02:01:15;;;;;;;2.87;1.30;;;7.70;99.90;;;;;;5023435;28;20754;-68
2022/02/23 02:03:41;;;;;;;7.30;1.40;;;7.20;99.90;;;;;;5023657;28;20208;-68
2022/02/23 02:06:06;;;;;;;3.93;1.33;;;7.00;99.90;;;;;;5022274;28;20231;-69
2022/02/23 02:08:32;;;;;;;6.47;2.40;;;6.90;99.90;;;;;;5023011;28;20623;-70
2022/02/23 02:10:57;;;;;;;5.90;1.77;;;6.80;99.90;;;;;;5023644;28;20191;-68
2022/02/23 02:13:24;;;;;;;4.47;1.37;;;6.70;99.90;;;;;;5022329;28;20436;-68
2022/02/23 02:15:49;;;;;;;3.03;1.97;;;6.70;99.90;;;;;;5023583;28;20176;-68
2022/02/23 02:18:15;;;;;;;2.93;1.50;;;6.70;99.90;;;;;;5022424;28;20426;-69
2022/02/23 02:20:40;;;;;;;5.13;1.40;;;6.80;99.90;;;;;;5022838;28;20207;-68
2022/02/23 02:23:06;;;;;;;3.20;1.43;;;6.80;99.90;;;;;;5021545;28;20219;-69
2022/02/23 02:25:31;;;;;;;4.97;1.20;;;6.70;99.90;;;;;;5023414;28;20211;-68
2022/02/23 02:27:57;;;;;;;3.60;1.40;;;6.70;99.90;;;;;;5021832;28;20241;-68
2022/02/23 02:30:23;;;;;;;7.13;1.50;;;6.80;99.90;;;;;;5023641;28;20210;-69
2022/02/23 02:32:48;;;;;;;3.80;1.47;;;6.90;99.90;;;;;;5022621;28;20200;-69
2022/02/23 02:35:15;;;;;;;4.03;1.30;;;6.90;99.90;;;;;;5023013;28;20207;-68
2022/02/23 02:37:41;;;;;;;6.10;1.47;;;6.90;99.90;;;;;;5022672;28;20178;-68
2022/02/23 02:40:08;;;;;;;3.17;1.40;;;7.00;99.90;;;;;;5022797;28;20979;-68
2022/02/23 02:42:33;;;;;;;4.00;1.70;;;7.10;99.90;;;;;;5022070;28;20270;-68
2022/02/23 02:44:59;;;;;;;5.73;1.47;;;7.20;99.90;;;;;;5022802;28;20497;-69
2022/02/23 02:47:25;;;;;;;5.00;1.50;;;7.40;99.90;;;;;;5020872;28;20724;-69
2022/02/23 02:49:50;;;;;;;5.33;1.40;;;7.40;99.90;;;;;;5022547;28;20603;-70
2022/02/23 02:52:16;;;;;;;1.60;1.20;;;7.30;99.90;;;;;;5022388;28;20228;-70
2022/02/23 02:54:42;;;;;;;6.97;1.80;;;7.50;99.90;;;;;;5021903;28;20227;-69
2022/02/23 02:57:07;;;;;;;4.07;1.27;;;7.60;99.90;;;;;;5021684;28;20181;-69
2022/02/23 02:59:33;;;;;;;4.97;1.77;;;7.60;99.90;;;;;;5022051;28;20227;-70
2022/02/23 03:01:58;;;;;;;2.50;1.50;;;7.60;99.90;;;;;;5022966;28;20251;-68
2022/02/23 03:04:24;;;;;;;3.70;1.43;;;7.70;99.90;;;;;;5019899;28;20209;-69
2022/02/23 03:06:49;;;;;;;3.40;1.57;;;7.70;99.90;;;;;;5022768;28;20214;-69
2022/02/23 03:09:15;;;;;;;3.93;1.83;;;7.70;99.90;;;;;;5021803;28;20587;-68
2022/02/23 03:11:41;;;;;;;2.10;1.60;;;7.80;99.90;;;;;;5022551;28;20462;-68
2022/02/23 03:14:06;;;;;;;8.03;1.70;;;7.70;99.90;;;;;;5022706;28;20299;-69
2022/02/23 03:16:32;;;;;;;3.23;1.30;;;8.00;99.90;;;;;;5022518;28;20201;-72
2022/02/23 03:18:57;;;;;;;5.37;1.40;;;8.10;99.90;;;;;;5022881;28;20672;-69
2022/02/23 03:21:23;;;;;;;6.40;1.73;;;8.00;99.90;;;;;;5021276;28;20610;-69
2022/02/23 03:23:49;;;;;;;5.37;2.17;;;8.10;99.90;;;;;;5022609;28;20218;-68
2022/02/23 03:26:14;;;;;;;4.33;2.03;;;8.20;99.90;;;;;;5022489;28;20644;-69
2022/02/23 03:28:41;;;;;;;7.03;1.77;;;8.20;99.90;;;;;;5022744;28;20178;-69
2022/02/23 03:31:08;;;;;;;4.80;1.77;;;8.40;99.90;;;;;;5019602;28;20429;-68
2022/02/23 03:33:42;;;;;;;7.10;2.33;;;8.50;99.90;;;;;;5022102;28;20572;-70
2022/02/23 03:36:11;;;;;;;4.57;1.33;;;8.40;99.90;;;;;;5024680;28;20500;-69
2022/02/23 03:38:36;;;;;;;7.07;2.63;;;8.40;99.90;;;;;;5026457;28;20438;-68
2022/02/23 03:41:02;;;;;;;6.20;2.37;;;8.30;99.90;;;;;;5025825;28;20432;-69
2022/02/23 03:43:28;;;;;;;5.80;1.67;;;8.20;99.90;;;;;;5026429;28;20687;-69
2022/02/23 03:45:53;;;;;;;11.10;2.30;;;8.10;99.90;;;;;;5026244;28;20182;-70
2022/02/23 03:48:19;;;;;;;5.63;1.90;;;7.80;99.90;;;;;;5026542;28;20186;-69
2022/02/23 03:50:45;;;;;;;5.40;1.83;;;7.70;99.90;;;;;;5025129;28;20851;-68
2022/02/23 03:53:11;;;;;;;4.93;1.90;;;7.70;99.90;;;;;;5024457;28;20308;-68
2022/02/23 03:55:36;;;;;;;4.70;1.70;;;7.60;99.90;;;;;;5023613;28;20511;-67
2022/02/23 03:58:02;;;;;;;7.03;1.97;;;7.50;99.90;;;;;;5026359;28;20179;-68
2022/02/23 04:00:27;;;;;;;8.10;2.17;;;7.30;99.90;;;;;;5024340;28;20695;-69
2022/02/23 04:02:53;;;;;;;9.30;1.77;;;7.20;99.90;;;;;;5025827;28;20208;-70
2022/02/23 04:05:19;;;;;;;3.97;1.80;;;7.20;99.90;;;;;;5024830;28;20181;-69
2022/02/23 04:07:45;;;;;;;6.00;1.97;;;7.10;99.90;;;;;;5024507;28;20182;-68
2022/02/23 04:10:11;;;;;;;4.03;1.60;;;7.10;99.90;;;;;;5025365;28;20297;-69
2022/02/23 04:12:37;;;;;;;5.40;2.00;;;7.10;99.90;;;;;;5024006;28;20544;-70
2022/02/23 04:15:03;;;;;;;5.87;2.37;;;7.20;99.90;;;;;;5025139;28;20180;-69
2022/02/23 04:17:28;;;;;;;5.83;2.17;;;7.20;99.90;;;;;;5025268;28;20242;-69
2022/02/23 04:19:54;;;;;;;11.20;2.47;;;7.20;99.90;;;;;;5024798;28;20419;-68
2022/02/23 04:22:19;;;;;;;6.03;1.93;;;7.20;99.90;;;;;;5024982;28;20180;-69
2022/02/23 04:24:45;;;;;;;10.53;2.10;;;7.20;99.90;;;;;;5025636;28;20200;-68
2022/02/23 04:27:11;;;;;;;5.60;2.07;;;7.20;99.90;;;;;;5025288;28;20338;-69
2022/02/23 04:29:36;;;;;;;3.33;2.10;;;7.20;99.90;;;;;;5024699;28;20588;-68
2022/02/23 04:32:02;;;;;;;7.60;2.30;;;7.20;99.90;;;;;;5024923;28;20187;-68
2022/02/23 04:34:28;;;;;;;8.53;2.50;;;7.30;99.90;;;;;;5025669;28;20195;-68
2022/02/23 04:36:53;;;;;;;8.17;2.30;;;7.40;99.90;;;;;;5023905;28;20444;-67
2022/02/23 04:39:19;;;;;;;9.30;2.53;;;7.50;99.90;;;;;;5025288;28;20186;-68
2022/02/23 04:41:45;;;;;;;6.90;2.10;;;7.50;99.90;;;;;;5024431;28;20194;-68
2022/02/23 04:44:11;;;;;;;5.60;2.37;;;7.60;99.90;;;;;;5024772;28;20310;-70
2022/02/23 04:46:37;;;;;;;4.20;2.47;;;7.50;99.90;;;;;;5023936;28;20553;-68
2022/02/23 04:49:03;;;;;;;4.37;2.10;;;7.60;99.90;;;;;;5024812;28;20183;-68
2022/02/23 04:51:30;;;;;;;4.27;1.90;;;7.60;99.90;;;;;;5024289;28;20183;-68
2022/02/23 04:54:00;;;;;;;9.43;2.70;;;7.60;99.90;;;;;;5024684;28;20532;-69
2022/02/23 04:56:26;;;;;;;3.53;1.83;;;7.60;99.90;;;;;;5023700;28;20441;-68
2022/02/23 04:58:52;;;;;;;6.03;1.97;;;7.60;99.90;;;;;;5025245;28;20480;-69
2022/02/23 05:01:17;;;;;;;5.20;2.40;;;7.60;99.90;;;;;;5022741;28;20958;-69
2022/02/23 05:03:44;;;;;;;4.97;2.80;;;7.60;99.90;;;;;;5024972;28;20239;-70
2022/02/23 05:06:10;;;;;;;4.97;2.10;;;7.50;99.90;;;;;;5024814;28;20176;-68
2022/02/23 05:08:35;;;;;;;6.67;2.87;;;7.50;99.90;;;;;;5024264;28;20419;-69
2022/02/23 05:11:05;;;;;;;4.07;1.97;;;7.40;99.90;;;;;;5024844;28;20429;-69
2022/02/23 05:13:30;;;;;;;4.83;1.87;;;7.40;99.90;;;;;;5023676;28;20237;-68
2022/02/23 05:15:59;;;;;;;11.57;3.87;;;7.30;99.90;;;;;;5023211;28;20425;-69
2022/02/23 05:18:29;;;;;;;10.10;3.23;;;7.20;99.90;;;;;;5024725;28;20421;-71
2022/02/23 05:20:56;;;;;;;7.20;2.20;;;7.10;99.90;;;;;;5022113;28;20977;-71
2022/02/23 05:23:22;;;;;;;6.87;3.63;;;7.00;99.90;;;;;;5024521;28;20489;-68
2022/02/23 05:25:47;;;;;;;12.03;4.80;;;6.90;99.90;;;;;;5023436;28;20424;-68
2022/02/23 05:28:13;;;;;;;12.33;5.10;;;6.80;99.90;;;;;;5022791;28;20474;-69
2022/02/23 05:30:39;;;;;;;10.27;5.23;;;6.80;99.90;;;;;;5022000;28;20184;-68
2022/02/23 05:33:04;;;;;;;7.40;5.00;;;6.80;99.90;;;;;;5024057;28;20258;-68
2022/02/23 05:35:31;;;;;;;12.33;5.00;;;6.80;99.90;;;;;;5023973;28;20183;-69
2022/02/23 05:37:57;;;;;;;4.77;3.37;;;6.70;99.90;;;;;;5022361;28;20186;-72
2022/02/23 05:40:22;;;;;;;6.60;3.30;;;6.70;99.90;;;;;;5022676;28;20414;-68
2022/02/23 05:42:48;;;;;;;5.87;3.27;;;6.70;99.90;;;;;;5022807;28;21036;-68
2022/02/23 05:45:14;;;;;;;10.47;4.60;;;6.60;99.90;;;;;;5024127;28;20215;-69
2022/02/23 05:47:39;;;;;;;6.93;3.80;;;6.40;99.90;;;;;;5023357;28;20833;-69
2022/02/23 05:50:05;;;;;;;9.37;2.77;;;6.30;99.90;;;;;;5023857;28;20179;-68
2022/02/23 05:52:31;;;;;;;9.30;3.20;;;6.30;99.90;;;;;;5021328;28;20257;-68
2022/02/23 05:54:57;;;;;;;7.93;3.37;;;6.30;99.90;;;;;;5023861;28;20406;-68
2022/02/23 05:57:23;;;;;;;5.10;2.80;;;6.20;99.90;;;;;;5022135;28;20418;-69
2022/02/23 05:59:49;;;;;;;6.73;3.43;;;6.20;99.90;;;;;;5023769;28;20317;-68
2022/02/23 06:02:15;;;;;;;11.73;3.97;;;6.10;99.90;;;;;;5023703;28;20270;-70
2022/02/23 06:04:41;;;;;;;10.63;4.50;;;6.00;99.90;;;;;;5022516;28;20206;-68
2022/02/23 06:07:06;;;;;;;8.13;3.73;;;6.00;99.90;;;;;;5023762;28;20415;-68
2022/02/23 06:09:33;;;;;;;9.77;3.33;;;6.00;99.90;;;;;;5020747;28;20500;-71
2022/02/23 06:11:59;;;;;;;12.07;3.80;;;6.00;99.90;;;;;;5023566;28;20182;-72
2022/02/23 06:14:25;;;;;;;8.77;4.57;;;5.90;99.90;;;;;;5020327;28;20442;-69
2022/02/23 06:16:50;;;;;;;4.30;3.80;;;5.80;99.90;;;;;;5023609;28;20476;-69
2022/02/23 06:19:16;;;;;;;3.77;2.90;;;5.90;99.90;;;;;;5022108;28;20203;-72
2022/02/23 06:21:42;;;;;;;7.63;3.70;;;6.00;99.90;;;;;;5023387;28;20201;-69
2022/02/23 06:24:08;;;;;;;6.60;4.00;;;5.90;99.90;;;;;;5020987;28;20273;-69
2022/02/23 06:26:34;;;;;;;7.73;3.10;;;5.90;99.90;;;;;;5023077;28;20495;-72
2022/02/23 06:29:00;;;;;;;10.53;3.10;;;5.80;99.90;;;;;;5022068;28;20463;-69
2022/02/23 06:31:25;;;;;;;3.93;3.30;;;5.80;99.90;;;;;;5022833;28;20480;-69
2022/02/23 06:33:51;;;;;;;6.60;4.23;;;5.80;99.90;;;;;;5022739;28;20203;-71
2022/02/23 06:36:17;;;;;;;8.30;4.37;;;5.80;99.90;;;;;;5023198;28;20542;-69
2022/02/23 06:38:43;;;;;;;7.57;3.50;;;5.90;99.90;;;;;;5021942;28;20175;-69
2022/02/23 06:41:18;;;;;;;7.07;3.70;;;5.80;99.90;;;;;;5023244;28;20776;-69
2022/02/23 06:43:46;;;;;;;7.53;3.30;;;5.80;99.90;;;;;;5021561;28;20444;-74
2022/02/23 06:46:12;;;;;;;4.63;3.00;;;6.00;99.90;;;;;;5023032;28;20447;-72
2022/02/23 06:48:40;;;;;;;8.07;3.03;;;6.00;99.90;;;;;;5020791;28;20432;-70
2022/02/23 06:51:06;;;;;;;6.27;3.27;;;6.00;99.90;;;;;;5022783;28;20737;-70
2022/02/23 06:53:32;;;;;;;5.40;2.83;;;6.10;99.90;;;;;;5021755;28;20481;-69
2022/02/23 06:55:57;;;;;;;8.10;3.43;;;6.10;99.90;;;;;;5022485;28;20413;-69
2022/02/23 06:58:23;;;;;;;8.90;3.70;;;6.00;99.90;;;;;;5021682;28;20177;-69
2022/02/23 07:00:49;;;;;;;6.00;3.20;;;6.00;99.90;;;;;;5019887;28;20179;-70
2022/02/23 07:03:15;;;;;;;5.40;2.63;;;6.10;99.90;;;;;;5023016;28;20462;-70
2022/02/23 07:05:41;;;;;;;5.03;3.20;;;6.20;99.90;;;;;;5021834;28;20179;-68
2022/02/23 07:08:08;;;;;;;6.90;3.67;;;6.10;99.90;;;;;;5022782;28;20172;-72
2022/02/23 07:10:35;;;;;;;7.43;3.63;;;6.10;99.90;;;;;;5025026;28;20446;-68
2022/02/23 07:13:06;;;;;;;3.40;2.43;;;6.00;99.90;;;;;;5026528;28;20491;-68
2022/02/23 07:15:35;;;;;;;7.17;2.93;;;6.10;99.90;;;;;;5025731;28;20413;-69
2022/02/23 07:18:01;;;;;;;6.83;2.63;;;6.20;99.90;;;;;;5025289;28;20457;-69
2022/02/23 07:20:27;;;;;;;3.53;3.23;;;6.20;99.90;;;;;;5026705;28;20460;-68
2022/02/23 07:22:53;;;;;;;6.57;4.07;;;6.30;99.90;;;;;;5024803;28;20221;-69
2022/02/23 07:25:19;;;;;;;7.20;3.80;;;6.30;99.90;;;;;;5025209;28;20425;-69
2022/02/23 07:27:45;;;;;;;10.13;5.10;;;6.40;99.90;;;;;;5026493;28;20410;-70
2022/02/23 07:30:13;;;;;;;7.57;3.53;;;6.40;99.90;;;;;;5025038;28;20500;-68
2022/02/23 07:32:39;;;;;;;6.67;4.70;;;6.50;99.90;;;;;;5026259;28;20450;-70
2022/02/23 07:35:06;;;;;;;7.50;3.83;;;6.40;99.90;;;;;;5025205;28;20427;-68
2022/02/23 07:37:37;;;;;;;5.27;3.30;;;6.50;99.90;;;;;;5026452;28;20329;-70
2022/02/23 07:40:15;;;;;;;6.93;3.20;;;6.50;99.90;;;;;;5024735;28;20405;-69
2022/02/23 07:42:42;;;;;;;6.20;3.40;;;6.60;99.90;;;;;;5008246;28;21004;-70
2022/02/23 07:45:09;;;;;;;3.63;3.07;;;6.50;99.90;;;;;;5025406;28;20788;-68
2022/02/23 07:47:35;;;;;;;5.63;3.23;;;6.50;99.90;;;;;;5026123;28;20421;-72
2022/02/23 07:50:02;;;;;;;4.17;3.10;;;6.60;99.90;;;;;;5025066;28;20946;-71
2022/02/23 07:52:29;;;;;;;7.73;2.30;;;6.70;99.90;;;;;;5024822;28;20813;-71
2022/02/23 07:54:55;;;;;;;5.30;3.03;;;6.90;99.90;;;;;;5021993;28;20560;-71
2022/02/23 07:57:23;;;;;;;9.53;3.70;;;7.00;99.90;;;;;;5024149;28;20582;-69
2022/02/23 07:59:55;;;;;;;10.57;2.87;;;7.10;99.90;;;;;;5022661;28;20831;-70
2022/02/23 08:02:23;;;;;;;8.23;3.57;;;7.30;99.90;;;;;;5025340;28;20740;-73
2022/02/23 08:04:52;;;;;;;4.67;3.50;;;7.40;99.90;;;;;;5025199;28;20426;-72
2022/02/23 08:07:19;;;;;;;12.50;3.80;;;7.40;99.90;;;;;;5023994;28;20553;-71
2022/02/23 08:09:45;;;;;;;6.27;3.10;;;7.50;99.90;;;;;;5025461;28;20993;-73
2022/02/23 08:12:11;;;;;;;8.70;3.37;;;7.50;99.90;;;;;;5024629;28;20427;-73
2022/02/23 08:14:37;;;;;;;9.37;4.27;;;7.70;99.90;;;;;;5025531;28;20995;-69
2022/02/23 08:19:47;;;;;;;6.87;4.50;;;7.90;99.90;;;;;;5025621;28;20181;-68
2022/02/23 08:22:14;;;;;;;8.47;3.67;;;8.00;99.90;;;;;;5023619;28;20419;-70
2022/02/23 08:24:44;;;;;;;9.57;5.37;;;7.90;99.90;;;;;;5025563;28;20582;-73
2022/02/23 08:27:12;;;;;;;8.40;4.40;;;7.90;99.90;;;;;;5025344;28;20415;-70
2022/02/23 08:29:40;;;;;;;11.53;4.47;;;8.10;99.90;;;;;;5025144;28;20419;-70
2022/02/23 08:32:08;;;;;;;7.47;4.47;;;8.20;99.90;;;;;;5025311;28;20941;-69
2022/02/23 08:34:34;;;;;;;8.80;5.00;;;8.40;99.90;;;;;;5022314;28;20446;-70
2022/02/23 08:37:00;;;;;;;12.30;4.37;;;8.50;99.90;;;;;;5025269;28;20441;-71
2022/02/23 08:39:26;;;;;;;12.53;4.53;;;8.60;99.90;;;;;;5024785;28;20504;-69
2022/02/23 08:41:52;;;;;;;11.07;3.90;;;8.70;99.90;;;;;;5025513;28;21006;-70
2022/02/23 08:44:17;;;;;;;13.87;4.60;;;8.70;99.90;;;;;;5024345;28;20202;-73
2022/02/23 08:46:45;;;;;;;8.43;3.77;;;8.90;99.90;;;;;;5025171;28;20191;-73
2022/02/23 08:49:12;;;;;;;4.57;3.37;;;9.00;99.90;;;;;;5024552;28;20730;-70
2022/02/23 08:51:41;;;;;;;7.83;3.97;;;9.10;99.90;;;;;;5025136;28;20508;-70
2022/02/23 08:54:07;;;;;;;6.60;4.10;;;9.00;99.90;;;;;;5022561;28;20466;-70
2022/02/23 08:56:33;;;;;;;6.53;4.53;;;9.00;99.90;;;;;;5024988;28;20826;-73
2022/02/23 08:58:58;;;;;;;7.20;3.80;;;9.10;99.90;;;;;;5024495;28;20292;-70
2022/02/23 09:01:25;;;;;;;6.33;3.60;;;9.30;99.90;;;;;;5023597;28;20974;-72
2022/02/23 09:03:52;;;;;;;7.20;2.90;;;9.30;99.90;;;;;;5024076;28;20212;-70
2022/02/23 09:06:18;;;;;;;3.40;2.67;;;9.70;99.90;;;;;;5024341;28;20414;-70
2022/02/23 09:08:44;;;;;;;5.10;2.67;;;9.80;99.90;;;;;;5023402;28;20417;-70
2022/02/23 09:11:12;;;;;;;3.40;2.33;;;10.00;99.90;;;;;;5023849;28;20428;-70
2022/02/23 09:13:37;;;;;;;7.00;2.43;;;10.10;99.90;;;;;;5024091;28;20210;-71
2022/02/23 09:16:04;;;;;;;6.77;3.10;;;10.30;99.90;;;;;;5023869;28;20414;-69
2022/02/23 09:18:30;;;;;;;3.87;1.67;;;10.20;99.90;;;;;;5024427;28;20223;-70
2022/02/23 09:20:56;;;;;;;5.47;2.20;;;10.10;99.90;;;;;;5024252;28;20413;-70
2022/02/23 09:23:22;;;;;;;4.93;1.90;;;10.20;99.90;;;;;;5023400;28;20620;-70
2022/02/23 09:25:47;;;;;;;6.43;2.43;;;10.20;99.90;;;;;;5023933;28;20191;-70
2022/02/23 09:28:13;;;;;;;5.70;2.00;;;10.30;99.90;;;;;;5024017;28;20235;-69
2022/02/23 09:30:38;;;;;;;4.77;1.57;;;10.40;99.90;;;;;;5023746;28;20733;-69
2022/02/23 09:33:04;;;;;;;4.63;1.70;;;10.40;99.90;;;;;;5021141;28;20214;-70
2022/02/23 09:35:29;;;;;;;2.57;1.70;;;10.50;99.90;;;;;;5023429;28;20632;-74
2022/02/23 09:37:57;;;;;;;8.03;2.37;;;10.60;99.90;;;;;;5024688;28;20187;-69
2022/02/23 09:40:24;;;;;;;4.17;1.80;;;10.70;99.90;;;;;;5023235;28;20193;-70
2022/02/23 09:42:51;;;;;;;6.23;1.60;;;10.40;99.90;;;;;;5024273;28;20425;-71
2022/02/23 09:45:17;;;;;;;5.83;2.17;;;10.20;99.90;;;;;;5023333;28;20420;-72
2022/02/23 09:47:44;;;;;;;6.63;1.70;;;10.30;99.90;;;;;;5023367;28;20414;-71
2022/02/23 09:50:18;;;;;;;3.50;1.77;;;10.40;99.90;;;;;;5022569;28;20463;-71
2022/02/23 09:52:44;;;;;;;4.20;1.80;;;10.60;99.90;;;;;;5022536;28;20534;-71
2022/02/23 09:55:10;;;;;;;3.80;2.00;;;10.70;99.90;;;;;;5024004;28;20413;-73
2022/02/23 09:57:36;;;;;;;4.30;1.87;;;10.90;99.90;;;;;;5023222;28;20433;-68
2022/02/23 10:00:05;;;;;;;9.40;3.20;;;10.90;99.90;;;;;;5023525;28;20276;-73
2022/02/23 10:02:33;;;;;;;6.03;2.40;;;11.00;99.90;;;;;;5022836;28;20750;-71
2022/02/23 10:05:00;;;;;;;2.70;1.70;;;11.10;99.90;;;;;;5023377;28;20461;-71
2022/02/23 10:07:31;;;;;;;3.40;1.70;;;11.10;99.90;;;;;;5022710;28;20430;-71
2022/02/23 10:10:00;;;;;;;6.40;1.83;;;11.20;99.90;;;;;;5069239;23;20495;-70
2022/02/23 10:12:27;;;;;;;8.57;2.60;;;11.20;99.90;;;;;;5045479;28;20459;-70
2022/02/23 10:15:16;;;;;;;4.17;1.67;;;11.10;99.90;;;;;;5047972;28;20409;-68
2022/02/23 10:17:52;;;;;;;5.27;2.00;;;11.10;99.90;;;;;;5043451;28;20417;-65
2022/02/23 10:20:34;;;;;;;7.00;1.67;;;10.90;99.90;;;;;;5044052;28;20451;-68
2022/02/23 10:23:06;;;;;;;2.30;1.43;;;10.80;99.90;;;;;;5044485;28;20496;-68
2022/02/23 10:25:42;;;;;;;4.37;1.67;;;11.10;99.90;;;;;;5039264;28;20427;-68
2022/02/23 10:28:10;;;;;;;3.47;1.50;;;11.20;99.90;;;;;;5027882;28;20901;-68
2022/02/23 10:31:00;;;;;;;3.70;1.50;;;11.20;99.90;;;;;;5024115;28;20564;-69
2022/02/23 10:33:34;;;;;;;4.77;1.70;;;11.20;99.90;;;;;;5025136;28;20452;-71
2022/02/23 10:36:02;;;;;;;4.50;1.90;;;11.20;99.90;;;;;;5026147;28;20855;-69
2022/02/23 10:38:37;;;;;;;4.10;1.77;;;11.40;99.90;;;;;;5025517;28;20966;-69
2022/02/23 10:41:06;;;;;;;6.80;1.70;;;11.50;99.90;;;;;;5034053;28;21005;-71
2022/02/23 10:43:34;;;;;;;7.57;1.60;;;11.50;99.90;;;;;;5030504;28;20436;-70
2022/02/23 10:46:21;;;;;;;4.03;1.87;;;11.30;99.90;;;;;;5030277;28;20486;-69
2022/02/23 10:48:52;;;;;;;4.50;1.70;;;11.40;99.90;;;;;;5027471;28;20434;-69
2022/02/23 10:51:32;;;;;;;5.80;1.60;;;11.30;99.90;;;;;;5025308;28;20417;-68
2022/02/23 10:54:05;;;;;;;6.30;1.67;;;11.30;99.90;;;;;;5035707;28;20452;-70
2022/02/23 10:56:40;;;;;;;4.97;1.33;;;11.40;99.90;;;;;;5046146;28;20472;-68
2022/02/23 10:59:31;;;;;;;4.07;1.60;;;11.50;99.90;;;;;;5031694;28;20452;-69
2022/02/23 11:01:57;;;;;;;4.37;1.93;;;11.50;99.90;;;;;;5039795;28;20424;-70
2022/02/23 11:04:23;;;;;;;4.27;2.30;;;11.50;99.90;;;;;;5028679;28;20441;-73
2022/02/23 11:06:51;;;;;;;3.10;1.43;;;11.70;99.90;;;;;;5026778;28;20184;-71
2022/02/23 11:09:17;;;;;;;4.73;2.00;;;11.90;99.90;;;;;;5023625;28;20301;-69
2022/02/23 11:11:44;;;;;;;9.50;2.23;;;11.70;99.90;;;;;;5023706;28;20624;-72
2022/02/23 11:14:11;;;;;;;10.87;2.33;;;11.70;99.90;;;;;;5037060;28;20566;-68
2022/02/23 11:16:37;;;;;;;7.60;2.00;;;11.90;99.90;;;;;;5021243;28;20436;-70
2022/02/23 11:19:04;;;;;;;5.63;1.80;;;12.10;99.90;;;;;;5022046;28;20479;-71
2022/02/23 11:21:34;;;;;;;4.50;1.73;;;12.90;99.90;;;;;;5022094;28;20420;-70
2022/02/23 11:24:02;;;;;;;8.10;1.60;;;14.20;99.90;;;;;;5021848;28;20527;-71
2022/02/23 11:26:32;;;;;;;3.20;1.53;;;15.00;99.90;;;;;;5022673;28;20965;-66
2022/02/23 11:29:24;;;;;;;4.37;2.10;;;14.80;99.20;;;;;;5020870;28;20465;-66
2022/02/23 11:31:51;;;;;;;7.17;2.03;;;15.10;99.90;;;;;;5041438;28;20790;-68
2022/02/23 11:34:19;;;;;;;9.00;2.30;;;16.90;97.60;;;;;;5023213;28;20459;-67
2022/02/23 11:36:46;;;;;;;7.67;1.50;;;17.60;94.50;;;;;;5036372;28;20506;-66
2022/02/23 11:39:15;;;;;;;2.57;1.60;;;18.20;93.10;;;;;;5030079;28;20450;-68
2022/02/23 11:41:54;;;;;;;4.40;1.90;;;17.30;93.80;;;;;;5038579;28;20419;-67
2022/02/23 11:44:29;;;;;;;5.57;2.03;;;16.40;94.30;;;;;;5027599;28;20420;-68
2022/02/23 11:47:32;;;;;;;5.83;1.70;;;16.70;95.70;;;;;;5021842;28;21142;-66
2022/02/23 11:50:21;;;;;;;6.73;2.83;;;18.10;91.60;;;;;;5026794;28;20449;-68
2022/02/23 11:52:50;;;;;;;1.97;1.13;;;17.00;91.80;;;;;;5032384;28;20879;-68
2022/02/23 11:58:44;;;;;;;4.53;2.20;;;17.30;91.30;;;;;;5042685;28;20963;-66
2022/02/23 12:01:10;;;;;;;3.70;1.53;;;17.00;91.70;;;;;;5027552;28;20895;-69
2022/02/23 12:03:36;;;;;;;5.23;1.73;;;18.50;88.90;;;;;;5026221;28;20421;-66
2022/02/23 12:06:09;;;;;;;5.50;1.57;;;19.70;87.00;;;;;;5034228;28;20237;-69
2022/02/23 12:08:45;;;;;;;6.07;1.70;;;21.70;82.90;;;;;;5048091;28;20559;-69
2022/02/23 12:11:35;;;;;;;4.60;1.93;;;22.50;79.40;;;;;;5029805;28;20433;-70
2022/02/23 12:14:01;;;;;;;3.30;1.90;;;23.60;74.00;;;;;;5027062;28;20465;-69
2022/02/23 12:16:45;;;;;;;4.30;2.03;;;23.60;71.50;;;;;;5029946;28;20750;-68
2022/02/23 12:19:11;;;;;;;4.57;2.07;;;23.40;72.10;;;;;;5038743;28;20198;-67
2022/02/23 12:21:48;;;;;;;4.00;1.40;;;22.50;71.40;;;;;;5039288;28;20418;-65
2022/02/23 12:24:18;;;;;;;5.87;2.07;;;21.90;71.40;;;;;;5026975;28;20414;-68
2022/02/23 12:26:45;;;;;;;3.33;2.10;;;20.20;73.70;;;;;;5045714;28;20421;-69
2022/02/23 12:29:14;;;;;;;4.97;2.30;;;19.60;77.30;;;;;;5035719;28;20830;-68
2022/02/23 12:31:44;;;;;;;9.73;2.53;;;19.80;77.90;;;;;;5025332;28;20783;-67
2022/02/23 12:34:17;;;;;;;6.83;2.20;;;20.30;76.50;;;;;;5026848;28;21041;-71
2022/02/23 12:36:49;;;;;;;10.33;2.13;;;20.70;76.40;;;;;;5028787;28;20409;-70
2022/02/23 12:39:25;;;;;;;2.97;1.63;;;19.80;80.20;;;;;;5028987;28;20809;-71
2022/02/23 12:42:13;;;;;;;6.27;2.20;;;19.80;82.40;;;;;;5033674;28;21009;-69
2022/02/23 12:44:40;;;;;;;6.60;2.10;;;20.70;77.00;;;;;;5029336;28;20421;-68
2022/02/23 12:47:09;;;;;;;3.60;1.90;;;20.70;76.30;;;;;;5031008;28;20441;-68
2022/02/23 12:49:36;;;;;;;4.10;1.80;;;21.20;74.00;;;;;;5030730;28;20437;-66
2022/02/23 12:52:03;;;;;;;10.33;2.73;;;21.50;72.80;;;;;;5032899;28;20786;-71
2022/02/23 12:54:29;;;;;;;3.57;2.07;;;22.90;71.30;;;;;;5040878;28;20461;-71
2022/02/23 12:56:57;;;;;;;3.23;1.80;;;24.60;68.90;;;;;;5025781;28;20926;-67
2022/02/23 12:59:25;;;;;;;9.27;2.30;;;24.10;65.20;;;;;;5038921;28;20456;-71
2022/02/23 13:02:00;;;;;;;4.03;1.50;;;24.40;67.40;;;;;;5033995;28;20898;-69
2022/02/23 13:04:36;;;;;;;2.97;1.80;;;24.10;66.60;;;;;;5025021;28;20683;-68
2022/02/23 13:07:05;;;;;;;7.50;1.93;;;24.10;64.70;;;;;;5025940;28;20441;-70
2022/02/23 13:09:40;;;;;;;4.90;1.93;;;25.00;61.70;;;;;;5036004;28;20518;-72
2022/02/23 13:12:08;;;;;;;3.30;1.70;;;24.80;59.80;;;;;;5025184;28;20443;-68
2022/02/23 13:14:37;;;;;;;5.57;1.80;;;25.60;58.90;;;;;;5037906;28;20465;-70
2022/02/23 13:17:06;;;;;;;5.03;1.90;;;24.60;61.00;;;;;;5028521;28;20421;-69
2022/02/23 13:19:37;;;;;;;4.57;1.77;;;23.90;59.40;;;;;;5026966;28;20430;-70
2022/02/23 13:22:07;;;;;;;3.43;1.60;;;22.60;61.50;;;;;;5044785;28;20413;-72